DK-0021 weather

Gesten Glider Field
Denmark

Public forecast

Using degrees Celsius for public forecast. Weather courtesy of forecast.io.

METAR (pilot weather report)

Closest report is Kolding Vamdrup Airfield, 8.4 nm (15.5 km) SE. Retrieved 2019/04/21 07:50 UTC (11 minutes ago):

EKVD 210750Z 18004KT 140V220 CAVOK 14/02 Q1026

TAF (pilot weather forecast)

Closest forecast is Billund Airport, 11.4 nm (21.2 km) N. Retrieved 2019/04/21 06:00 UTC (2 hours ago):

TAF EKAH 210501Z 2106/2206 VRB02KT CAVOK= TAF EKBI 210501Z 2106/2206 VRB02KT CAVOK